createdAt,value
2022-12-03T00:02:11.549Z,8.23
2022-12-03T00:04:41.279Z,7.70
2022-12-03T00:07:11.397Z,8.27
2022-12-03T00:09:42.060Z,7.30
2022-12-03T00:12:11.782Z,9.07
2022-12-03T00:14:44.868Z,8.27
2022-12-03T00:17:12.121Z,7.20
2022-12-03T00:19:42.490Z,8.13
2022-12-03T00:22:16.539Z,8.57
2022-12-03T00:24:46.430Z,7.90
2022-12-03T00:27:16.623Z,8.23
2022-12-03T00:29:47.411Z,8.17
2022-12-03T00:32:17.445Z,8.40
2022-12-03T00:34:47.355Z,9.00
2022-12-03T00:37:17.554Z,9.07
2022-12-03T00:39:51.053Z,9.60
2022-12-03T00:42:21.009Z,9.80
2022-12-03T00:44:51.661Z,8.90
2022-12-03T00:47:21.550Z,9.27
2022-12-03T00:49:52.042Z,10.30
2022-12-03T00:52:22.321Z,9.57
2022-12-03T00:54:52.845Z,8.73
2022-12-03T00:57:27.996Z,8.87
2022-12-03T00:59:58.468Z,9.00
2022-12-03T01:02:29.230Z,8.40
2022-12-03T01:04:59.777Z,8.80
2022-12-03T01:07:30.267Z,8.80
2022-12-03T01:10:01.801Z,8.97
2022-12-03T01:12:32.018Z,9.60
2022-12-03T01:15:06.394Z,8.97
2022-12-03T01:17:36.699Z,9.33
2022-12-03T01:20:08.296Z,9.83
2022-12-03T01:22:35.086Z,9.57
2022-12-03T01:25:05.881Z,9.00
2022-12-03T01:27:36.925Z,9.00
2022-12-03T01:30:07.412Z,9.70
2022-12-03T01:32:40.769Z,9.90
2022-12-03T01:35:10.686Z,8.90
2022-12-03T01:37:41.238Z,9.67
2022-12-03T01:40:13.577Z,10.10
2022-12-03T01:42:43.779Z,9.13
2022-12-03T01:45:21.605Z,9.30
2022-12-03T01:47:52.639Z,7.97
2022-12-03T01:50:30.149Z,9.40
2022-12-03T01:53:01.902Z,9.37
2022-12-03T01:55:31.963Z,7.43
2022-12-03T01:58:02.108Z,7.47
2022-12-03T02:00:32.245Z,7.90
2022-12-03T02:03:10.594Z,8.30
2022-12-03T02:05:42.575Z,8.03
2022-12-03T02:08:33.197Z,7.70
2022-12-03T02:11:15.811Z,7.70
2022-12-03T02:13:48.169Z,7.77
2022-12-03T02:16:18.622Z,7.57
2022-12-03T02:18:52.513Z,7.87
2022-12-03T02:22:07.003Z,8.10
2022-12-03T02:25:05.403Z,8.03
2022-12-03T02:27:40.340Z,7.83
2022-12-03T02:30:12.768Z,8.23
2022-12-03T02:32:43.069Z,9.13
2022-12-03T02:35:20.536Z,8.37
2022-12-03T02:38:07.872Z,8.30
2022-12-03T02:40:38.496Z,9.57
2022-12-03T02:43:09.068Z,9.07
2022-12-03T02:45:41.908Z,9.93
2022-12-03T02:48:18.230Z,8.90
2022-12-03T02:50:57.721Z,8.67
2022-12-03T02:53:27.210Z,8.27
2022-12-03T02:55:59.248Z,9.27
2022-12-03T02:58:31.884Z,8.80
2022-12-03T03:01:03.236Z,9.00
2022-12-03T03:03:34.016Z,9.30
2022-12-03T03:06:08.834Z,8.33
2022-12-03T03:08:41.107Z,8.80
2022-12-03T03:11:11.521Z,9.07
2022-12-03T03:13:42.014Z,9.07
2022-12-03T03:16:12.597Z,9.00
2022-12-03T03:18:43.165Z,8.23
2022-12-03T03:21:13.530Z,9.00
2022-12-03T03:23:46.394Z,9.20
2022-12-03T03:26:17.031Z,9.40
2022-12-03T03:28:49.814Z,8.63
2022-12-03T03:31:25.574Z,8.70
2022-12-03T03:33:56.446Z,9.70
2022-12-03T03:36:28.083Z,9.83
2022-12-03T03:39:04.461Z,10.63
2022-12-03T03:41:35.128Z,9.97
2022-12-03T03:44:07.478Z,11.07
2022-12-03T03:46:37.024Z,10.63
2022-12-03T03:49:09.824Z,10.40
2022-12-03T03:51:38.976Z,11.87
2022-12-03T03:54:08.653Z,10.73
2022-12-03T03:56:42.426Z,11.00
2022-12-03T03:59:13.092Z,11.40
2022-12-03T04:01:43.829Z,11.17
2022-12-03T04:04:20.297Z,11.97
2022-12-03T04:06:46.837Z,11.63
2022-12-03T04:09:14.255Z,11.13
2022-12-03T04:12:02.958Z,11.70
2022-12-03T04:14:29.955Z,11.70
2022-12-03T04:16:56.212Z,11.73
2022-12-03T04:19:22.459Z,11.80
2022-12-03T04:22:07.241Z,11.97
2022-12-03T04:24:33.385Z,11.87
2022-12-03T04:27:18.073Z,13.67
2022-12-03T04:29:48.401Z,11.40
2022-12-03T04:32:36.364Z,12.90
2022-12-03T04:35:21.196Z,13.50
2022-12-03T04:37:51.451Z,13.23
2022-12-03T04:40:50.682Z,12.10
2022-12-03T04:43:20.791Z,13.40
2022-12-03T04:45:51.099Z,13.40
2022-12-03T04:48:26.501Z,11.87
2022-12-03T04:50:56.849Z,12.63
2022-12-03T04:53:26.910Z,12.50
2022-12-03T04:55:56.871Z,12.70
2022-12-03T04:58:27.355Z,12.60
2022-12-03T05:00:57.491Z,12.93
2022-12-03T05:03:28.238Z,12.30
2022-12-03T05:06:03.434Z,11.87
2022-12-03T05:08:33.779Z,11.33
2022-12-03T05:11:04.039Z,13.80
2022-12-03T05:13:34.838Z,12.47
2022-12-03T05:16:05.541Z,12.73
2022-12-03T05:18:36.336Z,13.00
2022-12-03T05:21:06.516Z,12.50
2022-12-03T05:23:41.621Z,13.63
2022-12-03T05:26:11.816Z,12.43
2022-12-03T05:28:42.122Z,12.13
2022-12-03T05:31:12.329Z,10.97
2022-12-03T05:33:44.542Z,11.60
2022-12-03T05:36:15.565Z,12.13
2022-12-03T05:38:46.283Z,11.43
2022-12-03T05:41:37.636Z,11.83
2022-12-03T05:44:04.696Z,11.50
2022-12-03T05:46:34.838Z,11.43
2022-12-03T05:49:05.567Z,12.37
2022-12-03T05:51:35.340Z,12.13
2022-12-03T05:54:05.954Z,11.47
2022-12-03T05:56:39.647Z,11.10
2022-12-03T05:59:09.615Z,10.50
2022-12-03T06:01:39.388Z,11.47
2022-12-03T06:04:09.693Z,11.47
2022-12-03T06:06:39.195Z,10.97
2022-12-03T06:09:09.469Z,10.73
2022-12-03T06:11:39.913Z,11.20
2022-12-03T06:14:14.500Z,11.47
2022-12-03T06:16:44.707Z,11.37
2022-12-03T06:19:14.769Z,10.17
2022-12-03T06:21:45.038Z,10.00
2022-12-03T06:24:15.496Z,10.37
2022-12-03T06:26:45.419Z,10.43
2022-12-03T06:29:15.911Z,10.70
2022-12-03T06:31:49.614Z,9.60
2022-12-03T06:34:20.170Z,10.17
2022-12-03T06:36:50.111Z,9.10
2022-12-03T06:39:20.105Z,10.20
2022-12-03T06:41:50.080Z,10.13
2022-12-03T06:44:20.797Z,9.93
2022-12-03T06:46:50.854Z,9.60
2022-12-03T06:49:24.472Z,9.67
2022-12-03T06:51:55.333Z,9.90
2022-12-03T06:54:25.040Z,10.43
2022-12-03T06:56:55.133Z,10.50
2022-12-03T06:59:25.318Z,8.90
2022-12-03T07:01:55.193Z,11.23
2022-12-03T07:04:25.386Z,10.20
2022-12-03T07:06:59.617Z,10.90
2022-12-03T07:09:29.544Z,11.10
2022-12-03T07:11:59.616Z,10.87
2022-12-03T07:14:29.880Z,10.90
2022-12-03T07:16:59.729Z,10.20
2022-12-03T07:19:32.839Z,11.60
2022-12-03T07:22:00.811Z,11.37
2022-12-03T07:24:34.645Z,11.10
2022-12-03T07:27:05.208Z,11.97
2022-12-03T07:29:35.570Z,10.50
2022-12-03T07:32:05.405Z,11.10
2022-12-03T07:34:35.915Z,11.30
2022-12-03T07:37:05.809Z,10.03
2022-12-03T07:39:36.073Z,12.20
2022-12-03T07:42:10.250Z,11.67
2022-12-03T07:44:40.543Z,11.47
2022-12-03T07:47:10.922Z,12.50
2022-12-03T07:49:41.081Z,12.13
2022-12-03T07:52:10.916Z,12.00
2022-12-03T07:54:41.100Z,11.97
2022-12-03T07:57:11.206Z,11.50
2022-12-03T07:59:45.066Z,13.40
2022-12-03T08:02:20.975Z,12.80
2022-12-03T08:04:47.796Z,10.90
2022-12-03T08:07:15.709Z,11.30
2022-12-03T08:09:46.342Z,10.87
2022-12-03T08:12:19.429Z,11.93
2022-12-03T08:14:46.572Z,13.37
2022-12-03T08:17:20.936Z,12.17
2022-12-03T08:19:50.394Z,11.57
2022-12-03T08:22:21.581Z,12.50
2022-12-03T08:24:51.191Z,11.90
2022-12-03T08:27:21.222Z,11.33
2022-12-03T08:29:54.212Z,12.43
2022-12-03T08:32:21.795Z,12.50
2022-12-03T08:34:52.181Z,11.10
2022-12-03T08:37:21.739Z,10.63
2022-12-03T08:39:54.220Z,11.53
2022-12-03T08:42:42.863Z,11.90
2022-12-03T08:45:27.624Z,11.30
2022-12-03T08:47:57.398Z,12.60
2022-12-03T08:50:37.780Z,13.17
2022-12-03T08:53:17.312Z,12.53
2022-12-03T08:55:50.929Z,12.60
2022-12-03T08:58:43.318Z,12.67
2022-12-03T09:01:24.274Z,12.90
2022-12-03T09:03:56.227Z,12.37
2022-12-03T09:06:26.445Z,11.37
2022-12-03T09:08:57.094Z,12.90
2022-12-03T09:11:27.392Z,12.13
2022-12-03T09:13:57.915Z,13.53
2022-12-03T09:16:28.292Z,13.43
2022-12-03T09:19:04.184Z,12.80
2022-12-03T09:21:34.326Z,13.50
2022-12-03T09:24:05.204Z,13.00
2022-12-03T09:26:35.874Z,12.90
2022-12-03T09:29:11.874Z,13.17
2022-12-03T09:31:42.815Z,13.10
2022-12-03T09:34:13.535Z,12.47
2022-12-03T09:36:43.768Z,13.17
2022-12-03T09:39:15.206Z,12.80
2022-12-03T09:41:46.054Z,12.50
2022-12-03T09:44:21.101Z,13.30
2022-12-03T09:46:51.564Z,13.63
2022-12-03T09:49:22.050Z,13.00
2022-12-03T09:51:54.797Z,14.10
2022-12-03T09:54:27.661Z,13.27
2022-12-03T09:57:00.225Z,14.17
2022-12-03T09:59:32.665Z,14.43
2022-12-03T10:02:03.644Z,13.67
2022-12-03T10:04:34.148Z,13.77
2022-12-03T10:07:04.338Z,13.73
2022-12-03T10:09:41.796Z,13.90
2022-12-03T10:12:12.860Z,14.90
2022-12-03T10:14:41.670Z,13.73
2022-12-03T10:17:11.197Z,13.20
2022-12-03T10:19:42.081Z,15.77
2022-12-03T10:22:10.985Z,13.70
2022-12-03T10:24:41.913Z,12.87
2022-12-03T10:27:23.999Z,12.70
2022-12-03T10:29:57.482Z,11.90
2022-12-03T10:32:25.844Z,12.60
2022-12-03T10:35:26.070Z,13.83
2022-12-03T10:37:58.511Z,13.43
2022-12-03T10:40:31.562Z,12.80
2022-12-03T10:43:28.076Z,14.00
2022-12-03T10:46:03.544Z,13.43
2022-12-03T10:48:34.684Z,12.77
2022-12-03T10:51:09.584Z,12.57
2022-12-03T10:53:40.531Z,14.13
2022-12-03T10:56:23.074Z,13.97
2022-12-03T10:58:54.614Z,14.40
2022-12-03T11:01:26.036Z,12.83
2022-12-03T11:04:04.036Z,12.80
2022-12-03T11:06:34.395Z,13.70
2022-12-03T11:09:15.988Z,12.27
2022-12-03T11:11:47.069Z,14.40
2022-12-03T11:14:52.423Z,13.90
2022-12-03T11:17:24.619Z,12.73
2022-12-03T11:19:51.676Z,14.27
2022-12-03T11:22:26.686Z,14.43
2022-12-03T11:25:25.270Z,13.87
2022-12-03T11:28:13.703Z,13.67
2022-12-03T11:30:53.049Z,13.87
2022-12-03T11:33:27.281Z,13.20
2022-12-03T11:36:03.618Z,14.07
2022-12-03T11:38:41.092Z,14.27
2022-12-03T11:41:26.215Z,13.60
2022-12-03T11:43:59.624Z,13.47
2022-12-03T11:46:35.767Z,14.30
2022-12-03T11:49:22.983Z,13.67
2022-12-03T11:51:56.335Z,13.47
2022-12-03T11:54:26.769Z,14.30
2022-12-03T11:56:57.409Z,13.00
2022-12-03T11:59:34.547Z,13.30
2022-12-03T12:02:19.286Z,14.17
2022-12-03T12:04:47.923Z,13.90
2022-12-03T12:07:35.553Z,15.30
2022-12-03T12:10:03.234Z,13.97
2022-12-03T12:12:32.056Z,14.20
2022-12-03T12:15:37.709Z,13.43
2022-12-03T12:18:33.338Z,15.07
2022-12-03T12:21:43.958Z,15.60
2022-12-03T12:24:30.109Z,13.80
2022-12-03T12:27:14.619Z,13.00
2022-12-03T12:29:45.654Z,13.43
2022-12-03T12:32:16.629Z,15.80
2022-12-03T12:34:48.590Z,14.80
2022-12-03T12:37:47.383Z,14.63
2022-12-03T12:40:23.246Z,14.10
2022-12-03T12:42:57.727Z,14.73
2022-12-03T12:45:27.995Z,15.50
2022-12-03T12:48:24.266Z,13.40
2022-12-03T12:51:09.624Z,14.73
2022-12-03T12:53:42.190Z,14.90
2022-12-03T12:56:36.748Z,14.70
2022-12-03T12:59:19.858Z,14.93
2022-12-03T13:01:50.352Z,16.27
2022-12-03T13:04:26.833Z,14.70
2022-12-03T13:06:58.728Z,14.20
2022-12-03T13:09:28.405Z,13.03
2022-12-03T13:11:59.040Z,13.73
2022-12-03T13:14:34.021Z,14.57
2022-12-03T13:17:01.286Z,15.10
2022-12-03T13:19:30.272Z,14.63
2022-12-03T13:22:12.741Z,14.37
2022-12-03T13:24:44.454Z,14.53
2022-12-03T13:27:19.528Z,15.30
2022-12-03T13:30:08.926Z,15.07
2022-12-03T13:32:38.589Z,14.40
2022-12-03T13:35:22.109Z,13.77
2022-12-03T13:37:52.544Z,14.17
2022-12-03T13:40:34.281Z,13.97
2022-12-03T13:43:10.628Z,15.27
2022-12-03T13:45:43.275Z,14.70
2022-12-03T13:48:23.683Z,15.60
2022-12-03T13:50:54.455Z,14.47
2022-12-03T13:53:32.853Z,14.90
2022-12-03T13:56:19.878Z,14.10
2022-12-03T13:58:50.583Z,13.97
2022-12-03T14:01:21.517Z,14.93
2022-12-03T14:03:56.229Z,15.33
2022-12-03T14:06:26.839Z,15.87
2022-12-03T14:08:57.269Z,15.20
2022-12-03T14:11:50.009Z,14.87
2022-12-03T14:14:20.737Z,13.87
2022-12-03T14:17:10.782Z,15.90
2022-12-03T14:19:41.190Z,14.30
2022-12-03T14:22:11.403Z,15.60
2022-12-03T14:24:45.092Z,15.27
2022-12-03T14:27:15.648Z,15.20
2022-12-03T14:29:51.651Z,15.50
2022-12-03T14:32:24.940Z,16.27
2022-12-03T14:34:55.018Z,15.80
2022-12-03T14:37:25.113Z,15.67
2022-12-03T14:39:55.560Z,16.80
2022-12-03T14:42:25.113Z,15.40
2022-12-03T14:44:55.302Z,17.43
2022-12-03T14:47:24.988Z,16.80
2022-12-03T14:49:57.287Z,14.30
2022-12-03T14:52:28.239Z,15.30
2022-12-03T14:54:58.471Z,19.10
2022-12-03T14:57:28.054Z,19.10
2022-12-03T14:59:59.883Z,16.10
2022-12-03T15:02:29.844Z,16.30
2022-12-03T15:05:00.760Z,16.20
2022-12-03T15:07:34.008Z,15.60
2022-12-03T15:10:06.268Z,14.67
2022-12-03T15:12:34.652Z,14.93
2022-12-03T15:15:05.690Z,15.70
2022-12-03T15:17:35.428Z,16.20
2022-12-03T15:20:08.206Z,14.57
2022-12-03T15:22:35.864Z,14.70
2022-12-03T15:25:07.038Z,15.13
2022-12-03T15:27:35.995Z,14.93
2022-12-03T15:30:07.392Z,14.90
2022-12-03T15:32:37.015Z,15.17
2022-12-03T15:35:08.992Z,15.17
2022-12-03T15:37:38.684Z,14.37
2022-12-03T15:40:09.905Z,16.63
2022-12-03T15:42:38.951Z,16.40
2022-12-03T15:45:14.796Z,15.80
2022-12-03T15:47:41.502Z,14.70
2022-12-03T15:50:09.849Z,15.40
2022-12-03T15:52:43.696Z,14.50
2022-12-03T15:55:14.155Z,15.30
2022-12-03T15:57:43.746Z,15.77
2022-12-03T16:00:14.358Z,15.90
2022-12-03T16:02:49.032Z,15.00
2022-12-03T16:05:18.573Z,16.03
2022-12-03T16:07:45.046Z,16.30
2022-12-03T16:10:20.708Z,14.43
2022-12-03T16:12:48.586Z,16.50
2022-12-03T16:15:23.520Z,17.00
2022-12-03T16:18:00.929Z,15.93
2022-12-03T16:20:26.993Z,15.50
2022-12-03T16:22:53.260Z,16.00
2022-12-03T16:25:20.198Z,15.80
2022-12-03T16:27:53.916Z,18.07
2022-12-03T16:30:24.099Z,16.07
2022-12-03T16:32:53.992Z,16.73
2022-12-03T16:35:24.600Z,16.60
2022-12-03T16:37:54.689Z,16.73
2022-12-03T16:40:24.779Z,16.17
2022-12-03T16:42:54.416Z,16.57
2022-12-03T16:45:28.245Z,17.70
2022-12-03T16:47:58.101Z,16.30
2022-12-03T16:50:30.195Z,15.60
2022-12-03T16:52:57.926Z,14.70
2022-12-03T16:55:29.048Z,15.07
2022-12-03T16:57:59.350Z,14.37
2022-12-03T17:00:29.703Z,16.27
2022-12-03T17:03:03.839Z,16.00
2022-12-03T17:05:34.041Z,15.87
2022-12-03T17:08:03.927Z,16.00
2022-12-03T17:10:34.515Z,15.77
2022-12-03T17:13:11.710Z,15.23
2022-12-03T17:15:38.912Z,16.13
2022-12-03T17:18:05.795Z,16.10
2022-12-03T17:20:36.711Z,17.17
2022-12-03T17:23:08.069Z,15.67
2022-12-03T17:25:38.765Z,15.87
2022-12-03T17:28:09.255Z,15.83
2022-12-03T17:30:41.174Z,16.10
2022-12-03T17:33:11.201Z,16.50
2022-12-03T17:35:42.708Z,17.20
2022-12-03T17:38:11.741Z,15.13
2022-12-03T17:40:41.834Z,16.00
2022-12-03T17:43:11.761Z,16.10
2022-12-03T17:45:43.018Z,16.20
2022-12-03T17:48:17.915Z,14.30
2022-12-03T17:50:48.191Z,14.83
2022-12-03T17:53:18.044Z,15.23
2022-12-03T17:55:48.601Z,14.83
2022-12-03T17:58:18.378Z,14.83
2022-12-03T18:00:48.736Z,14.80
2022-12-03T18:03:18.312Z,15.30
2022-12-03T18:05:51.429Z,14.23
2022-12-03T18:08:21.305Z,13.80
2022-12-03T18:10:51.337Z,14.73
2022-12-03T18:13:22.077Z,14.23
2022-12-03T18:15:52.299Z,13.33
2022-12-03T18:18:22.055Z,15.57
2022-12-03T18:20:52.652Z,15.50
2022-12-03T18:23:26.119Z,14.63
2022-12-03T18:26:05.635Z,13.63
2022-12-03T18:28:34.980Z,12.60
2022-12-03T18:31:14.295Z,13.53
2022-12-03T18:33:40.383Z,14.90
2022-12-03T18:36:20.831Z,15.20
2022-12-03T18:38:54.603Z,12.80
2022-12-03T18:41:22.109Z,13.87
2022-12-03T18:43:48.926Z,13.27
2022-12-03T18:46:45.062Z,14.10
2022-12-03T18:49:03.863Z,15.37
2022-12-03T18:51:30.109Z,15.20
2022-12-03T18:53:56.273Z,14.13
2022-12-03T18:56:29.493Z,14.50
2022-12-03T18:58:55.499Z,13.50
2022-12-03T19:01:22.152Z,13.33
2022-12-03T19:03:49.092Z,13.93
2022-12-03T19:06:22.864Z,13.33
2022-12-03T19:08:53.772Z,12.47
2022-12-03T19:11:22.716Z,13.80
2022-12-03T19:13:52.932Z,15.40
2022-12-03T19:16:23.085Z,14.10
2022-12-03T19:18:54.388Z,13.90
2022-12-03T19:21:23.551Z,12.83
2022-12-03T19:24:23.149Z,13.30
2022-12-03T19:26:43.510Z,12.83
2022-12-03T19:29:09.994Z,13.83
2022-12-03T19:31:41.059Z,13.10
2022-12-03T19:34:07.486Z,14.23
2022-12-03T19:36:33.893Z,13.27
2022-12-03T19:39:00.590Z,12.43
2022-12-03T19:41:34.082Z,12.73
2022-12-03T19:44:10.614Z,12.20
2022-12-03T19:46:37.046Z,12.27
2022-12-03T19:49:06.825Z,11.60
2022-12-03T19:51:36.903Z,11.40
2022-12-03T19:54:10.319Z,10.73
2022-12-03T19:56:37.880Z,9.97
2022-12-03T19:59:12.525Z,10.47
2022-12-03T20:01:42.464Z,10.60
2022-12-03T20:04:11.736Z,11.07
2022-12-03T20:06:41.984Z,10.67
2022-12-03T20:09:16.861Z,10.97
2022-12-03T20:11:43.908Z,10.70
2022-12-03T20:14:14.700Z,11.63
2022-12-03T20:16:48.801Z,11.23
2022-12-03T20:19:19.419Z,11.17
2022-12-03T20:21:49.752Z,10.90
2022-12-03T20:24:20.124Z,10.87
2022-12-03T20:26:50.234Z,11.30
2022-12-03T20:29:20.181Z,11.37
2022-12-03T20:31:50.414Z,11.07
2022-12-03T20:34:25.352Z,11.10
2022-12-03T20:36:55.117Z,11.17
2022-12-03T20:39:25.374Z,11.30
2022-12-03T20:41:55.452Z,11.73
2022-12-03T20:44:25.301Z,11.60
2022-12-03T20:46:55.112Z,11.47
2022-12-03T20:49:24.924Z,11.93
2022-12-03T20:52:02.869Z,11.70
2022-12-03T20:54:30.673Z,11.87
2022-12-03T20:56:58.944Z,12.20
2022-12-03T20:59:28.683Z,13.00
2022-12-03T21:01:58.725Z,12.90
2022-12-03T21:04:29.503Z,12.73
2022-12-03T21:06:59.674Z,13.80
2022-12-03T21:09:33.724Z,13.80
2022-12-03T21:12:03.706Z,14.93
2022-12-03T21:14:33.234Z,16.33
2022-12-03T21:17:08.694Z,15.13
2022-12-03T21:19:35.980Z,15.63
2022-12-03T21:22:05.890Z,16.97
2022-12-03T21:24:36.107Z,17.13
2022-12-03T21:27:08.590Z,15.50
2022-12-03T21:29:39.078Z,16.63
2022-12-03T21:32:09.331Z,16.63
2022-12-03T21:34:41.075Z,16.73
2022-12-03T21:37:09.206Z,18.60
2022-12-03T21:39:39.006Z,16.50
2022-12-03T21:42:22.186Z,17.63
2022-12-03T21:44:59.872Z,18.37
2022-12-03T21:47:25.920Z,17.37
2022-12-03T21:49:52.277Z,17.50
2022-12-03T21:52:18.621Z,16.97
2022-12-03T21:54:45.272Z,17.60
2022-12-03T21:57:14.021Z,16.83
2022-12-03T21:59:44.003Z,17.00
2022-12-03T22:02:14.387Z,18.10
2022-12-03T22:04:49.018Z,16.40
2022-12-03T22:07:23.985Z,17.90
2022-12-03T22:09:55.408Z,16.47
2022-12-03T22:12:26.138Z,16.80
2022-12-03T22:14:57.203Z,16.90
2022-12-03T22:17:28.226Z,17.00
2022-12-03T22:20:06.324Z,16.03
2022-12-03T22:22:33.018Z,15.70
2022-12-03T22:25:03.413Z,17.03
2022-12-03T22:27:33.501Z,16.50
2022-12-03T22:30:04.817Z,16.57
2022-12-03T22:32:34.178Z,16.23
2022-12-03T22:35:04.701Z,17.40
2022-12-03T22:37:38.828Z,16.67
2022-12-03T22:40:08.658Z,16.83
2022-12-03T22:42:38.425Z,16.73
2022-12-03T22:45:08.360Z,17.03
2022-12-03T22:47:38.291Z,16.20
2022-12-03T22:50:08.231Z,17.03
2022-12-03T22:52:38.154Z,16.83
2022-12-03T22:55:12.448Z,17.27
2022-12-03T22:57:42.414Z,16.77
2022-12-03T23:00:13.190Z,16.77
2022-12-03T23:02:42.318Z,17.20
2022-12-03T23:05:11.967Z,17.50
2022-12-03T23:07:43.031Z,16.00
2022-12-03T23:10:13.426Z,17.10
2022-12-03T23:12:46.293Z,18.10
2022-12-03T23:15:16.141Z,17.70
2022-12-03T23:17:46.230Z,15.73
2022-12-03T23:20:16.246Z,18.07
2022-12-03T23:22:47.896Z,17.10
2022-12-03T23:25:16.225Z,18.30
2022-12-03T23:27:46.692Z,17.17
2022-12-03T23:30:16.266Z,18.07
2022-12-03T23:32:45.754Z,16.57
2022-12-03T23:35:15.750Z,17.07
2022-12-03T23:37:46.116Z,17.10
2022-12-03T23:40:21.626Z,16.03
2022-12-03T23:42:51.803Z,15.97
2022-12-03T23:45:21.952Z,14.60
2022-12-03T23:47:57.921Z,15.90
2022-12-03T23:50:24.674Z,15.73
2022-12-03T23:52:53.363Z,15.80
2022-12-03T23:55:23.213Z,16.40
2022-12-03T23:57:56.795Z,15.40
